createdAt,value
2018-09-28T00:00:07.057Z,8.36
2018-09-28T00:01:07.088Z,8.35
2018-09-28T00:02:07.246Z,8.39
2018-09-28T00:03:06.917Z,8.43
2018-09-28T00:04:07.027Z,8.38
2018-09-28T00:05:06.875Z,8.3
2018-09-28T00:06:06.856Z,8.32
2018-09-28T00:07:07.181Z,8.38
2018-09-28T00:08:07.080Z,8.33
2018-09-28T00:09:07.029Z,8.26
2018-09-28T00:10:07.099Z,8.27
2018-09-28T00:11:07.084Z,8.27
2018-09-28T00:12:07.132Z,8.24
2018-09-28T00:13:07.128Z,8.27
2018-09-28T00:14:07.011Z,8.27
2018-09-28T00:15:07.173Z,8.29
2018-09-28T00:16:07.036Z,8.27
2018-09-28T00:17:06.880Z,8.33
2018-09-28T00:18:07.083Z,8.35
2018-09-28T00:19:06.839Z,8.28
2018-09-28T00:20:07.220Z,8.25
2018-09-28T00:21:07.038Z,8.3
2018-09-28T00:22:07.187Z,8.42
2018-09-28T00:23:07.361Z,8.39
2018-09-28T00:24:07.053Z,8.41
2018-09-28T00:25:07.038Z,8.37
2018-09-28T00:26:08.125Z,8.37
2018-09-28T00:27:07.071Z,8.39
2018-09-28T00:28:06.893Z,8.43
2018-09-28T00:29:06.826Z,8.32
2018-09-28T00:30:06.837Z,8.29
2018-09-28T00:31:06.979Z,8.35
2018-09-28T00:32:06.942Z,8.39
2018-09-28T00:33:07.055Z,8.35
2018-09-28T00:34:07.374Z,8.39
2018-09-28T00:35:07.129Z,8.3
2018-09-28T00:36:06.981Z,8.41
2018-09-28T00:37:07.037Z,8.34
2018-09-28T00:38:07.256Z,8.33
2018-09-28T00:39:06.932Z,8.29
2018-09-28T00:40:07.375Z,8.27
2018-09-28T00:41:07.152Z,8.35
2018-09-28T00:42:06.887Z,8.39
2018-09-28T00:43:06.869Z,8.33
2018-09-28T00:44:07.081Z,8.35
2018-09-28T00:45:06.836Z,8.39
2018-09-28T00:46:06.924Z,8.35
2018-09-28T00:47:06.996Z,8.34
2018-09-28T00:48:07.099Z,8.32
2018-09-28T00:49:07.095Z,8.32
2018-09-28T00:50:06.870Z,8.36
2018-09-28T00:51:07.010Z,8.32
2018-09-28T00:52:07.074Z,8.38
2018-09-28T00:53:07.205Z,8.35
2018-09-28T00:54:07.003Z,8.41
2018-09-28T00:55:07.164Z,8.33
2018-09-28T00:56:06.907Z,8.43
2018-09-28T00:57:07.167Z,8.41
2018-09-28T00:58:07.077Z,8.4
2018-09-28T00:59:07.085Z,8.34
2018-09-28T01:00:06.970Z,8.34
2018-09-28T01:01:06.986Z,8.4
2018-09-28T01:02:06.938Z,8.37
2018-09-28T01:03:06.991Z,8.35
2018-09-28T01:04:06.803Z,8.39
2018-09-28T01:05:06.955Z,8.33
2018-09-28T01:06:06.991Z,8.27
2018-09-28T01:07:07.165Z,8.26
2018-09-28T01:08:06.776Z,8.35
2018-09-28T01:09:06.788Z,8.25
2018-09-28T01:10:06.762Z,8.22
2018-09-28T01:11:06.998Z,8.35
2018-09-28T01:12:07.007Z,8.4
2018-09-28T01:13:06.939Z,8.39
2018-09-28T01:14:06.919Z,8.39
2018-09-28T01:15:07.303Z,8.35
2018-09-28T01:16:06.752Z,8.39
2018-09-28T01:17:06.815Z,8.38
2018-09-28T01:18:06.967Z,8.38
2018-09-28T01:19:06.758Z,8.4
2018-09-28T01:20:06.942Z,8.41
2018-09-28T01:21:06.969Z,8.42
2018-09-28T01:22:06.793Z,8.36
2018-09-28T01:23:06.899Z,8.33
2018-09-28T01:24:07.136Z,8.39
2018-09-28T01:25:06.939Z,8.34
2018-09-28T01:26:06.759Z,8.31
2018-09-28T01:27:06.895Z,8.3
2018-09-28T01:28:06.804Z,8.28
2018-09-28T01:29:06.922Z,8.22
2018-09-28T01:30:06.728Z,8.37
2018-09-28T01:31:06.926Z,8.31
2018-09-28T01:32:06.915Z,8.29
2018-09-28T01:33:06.738Z,8.21
2018-09-28T01:34:06.903Z,8.2
2018-09-28T01:35:06.978Z,8.37
2018-09-28T01:36:07.195Z,8.35
2018-09-28T01:37:06.923Z,8.3
2018-09-28T01:38:07.079Z,8.38
2018-09-28T01:39:06.777Z,8.31
2018-09-28T01:40:06.744Z,8.34
2018-09-28T01:41:06.760Z,8.31
2018-09-28T01:42:07.314Z,8.34
2018-09-28T01:43:06.969Z,8.33
2018-09-28T01:44:06.964Z,8.33
2018-09-28T01:45:07.117Z,8.29
2018-09-28T01:46:06.762Z,8.33
2018-09-28T01:47:06.920Z,8.35
2018-09-28T01:48:07.142Z,8.26
2018-09-28T01:49:06.832Z,8.34
2018-09-28T01:50:06.886Z,8.35
2018-09-28T01:51:07.134Z,8.36
2018-09-28T01:52:07.102Z,8.37
2018-09-28T01:53:06.746Z,8.31
2018-09-28T01:54:06.820Z,8.32
2018-09-28T01:55:06.904Z,8.36
2018-09-28T01:56:06.728Z,8.27
2018-09-28T01:57:06.828Z,8.23
2018-09-28T01:58:06.882Z,8.2
2018-09-28T01:59:06.747Z,8.32
2018-09-28T02:00:06.897Z,8.28
2018-09-28T02:01:06.740Z,8.32
2018-09-28T02:02:07.137Z,8.28
2018-09-28T02:03:06.946Z,8.21
2018-09-28T02:04:07.004Z,8.28
2018-09-28T02:05:07.090Z,8.28
2018-09-28T02:06:07.249Z,8.31
2018-09-28T02:07:07.219Z,8.3
2018-09-28T02:08:06.896Z,8.36
2018-09-28T02:09:06.968Z,8.3
2018-09-28T02:10:06.733Z,8.3
2018-09-28T02:11:06.943Z,8.23
2018-09-28T02:12:06.677Z,8.25
2018-09-28T02:13:06.852Z,8.33
2018-09-28T02:14:07.232Z,8.27
2018-09-28T02:15:07.072Z,8.26
2018-09-28T02:16:07.183Z,8.26
2018-09-28T02:17:06.784Z,8.21
2018-09-28T02:18:06.736Z,8.33
2018-09-28T02:19:06.886Z,8.41
2018-09-28T02:20:06.950Z,8.35
2018-09-28T02:21:06.973Z,8.36
2018-09-28T02:22:07.110Z,8.28
2018-09-28T02:23:06.772Z,8.35
2018-09-28T02:24:06.762Z,8.32
2018-09-28T02:25:06.700Z,8.31
2018-09-28T02:26:06.741Z,8.3
2018-09-28T02:27:06.807Z,8.34
2018-09-28T02:28:06.756Z,8.27
2018-09-28T02:29:06.716Z,8.38
2018-09-28T02:30:06.703Z,8.42
2018-09-28T02:31:06.939Z,8.45
2018-09-28T02:32:07.081Z,8.4
2018-09-28T02:33:06.836Z,8.33
2018-09-28T02:34:06.797Z,8.31
2018-09-28T02:35:06.758Z,8.33
2018-09-28T02:36:06.903Z,8.41
2018-09-28T02:37:06.781Z,8.44
2018-09-28T02:38:06.691Z,8.4
2018-09-28T02:39:06.934Z,8.42
2018-09-28T02:40:07.119Z,8.4
2018-09-28T02:41:06.874Z,8.43
2018-09-28T02:42:06.854Z,8.5
2018-09-28T02:43:06.897Z,8.43
2018-09-28T02:44:06.833Z,8.35
2018-09-28T02:45:06.798Z,8.34
2018-09-28T02:46:06.675Z,8.3
2018-09-28T02:47:06.702Z,8.37
2018-09-28T02:48:06.691Z,8.34
2018-09-28T02:49:06.808Z,8.35
2018-09-28T02:50:06.667Z,8.31
2018-09-28T02:51:06.818Z,8.32
2018-09-28T02:52:06.821Z,8.24
2018-09-28T02:53:06.968Z,8.22
2018-09-28T02:54:06.800Z,8.23
2018-09-28T02:55:06.665Z,8.25
2018-09-28T02:56:06.806Z,8.19
2018-09-28T02:57:07.082Z,8.22
2018-09-28T02:58:06.823Z,8.26
2018-09-28T02:59:06.677Z,8.2
2018-09-28T03:00:06.880Z,8.25
2018-09-28T03:01:06.684Z,8.29
2018-09-28T03:02:06.650Z,8.29
2018-09-28T03:03:06.928Z,8.32
2018-09-28T03:04:06.940Z,8.25
2018-09-28T03:05:06.806Z,8.32
2018-09-28T03:06:07.278Z,8.26
2018-09-28T03:07:06.774Z,8.23
2018-09-28T03:08:06.685Z,8.24
2018-09-28T03:09:06.861Z,8.23
2018-09-28T03:10:06.669Z,8.26
2018-09-28T03:11:07.023Z,8.29
2018-09-28T03:12:06.611Z,8.22
2018-09-28T03:13:06.933Z,8.29
2018-09-28T03:14:06.947Z,8.31
2018-09-28T03:15:06.774Z,8.26
2018-09-28T03:16:06.745Z,8.29
2018-09-28T03:17:06.737Z,8.2
2018-09-28T03:18:06.643Z,8.17
2018-09-28T03:19:06.685Z,8.23
2018-09-28T03:20:06.884Z,8.26
2018-09-28T03:21:06.594Z,8.27
2018-09-28T03:22:06.721Z,8.31
2018-09-28T03:23:06.801Z,8.26
2018-09-28T03:24:06.709Z,8.31
2018-09-28T03:25:06.785Z,8.25
2018-09-28T03:26:06.628Z,8.29
2018-09-28T03:27:06.611Z,8.27
2018-09-28T03:28:06.792Z,8.2
2018-09-28T03:29:06.789Z,8.21
2018-09-28T03:30:06.838Z,8.18
2018-09-28T03:31:06.769Z,8.2
2018-09-28T03:32:06.876Z,8.21
2018-09-28T03:33:06.842Z,8.25
2018-09-28T03:34:06.729Z,8.19
2018-09-28T03:35:06.733Z,8.22
2018-09-28T03:36:06.800Z,8.26
2018-09-28T03:37:06.692Z,8.29
2018-09-28T03:38:06.725Z,8.29
2018-09-28T03:39:06.855Z,8.26
2018-09-28T03:40:06.839Z,8.25
2018-09-28T03:41:06.757Z,8.18
2018-09-28T03:42:06.772Z,8.2
2018-09-28T03:43:06.635Z,8.17
2018-09-28T03:44:07.062Z,8.19
2018-09-28T03:45:06.742Z,8.18
2018-09-28T03:46:06.576Z,8.24
2018-09-28T03:47:06.785Z,8.29
2018-09-28T03:48:06.752Z,8.25
2018-09-28T03:49:06.555Z,8.23
2018-09-28T03:50:06.751Z,8.25
2018-09-28T03:51:06.736Z,8.27
2018-09-28T03:52:06.788Z,8.23
2018-09-28T03:53:06.831Z,8.24
2018-09-28T03:54:06.853Z,8.21
2018-09-28T03:55:06.664Z,8.18
2018-09-28T03:56:06.776Z,8.16
2018-09-28T03:57:06.842Z,8.1
2018-09-28T03:58:06.893Z,8.22
2018-09-28T03:59:06.807Z,8.18
2018-09-28T04:00:06.928Z,8.27
2018-09-28T04:01:06.646Z,8.25
2018-09-28T04:02:06.543Z,8.16
2018-09-28T04:03:06.873Z,8.25
2018-09-28T04:04:07.095Z,8.25
2018-09-28T04:05:06.784Z,8.19
2018-09-28T04:06:06.919Z,8.2
2018-09-28T04:07:06.620Z,8.25
2018-09-28T04:08:06.731Z,8.22
2018-09-28T04:09:06.664Z,8.2
2018-09-28T04:10:06.523Z,8.2
2018-09-28T04:11:06.677Z,8.25
2018-09-28T04:12:06.628Z,8.24
2018-09-28T04:13:06.819Z,8.19
2018-09-28T04:14:06.821Z,8.24
2018-09-28T04:15:07.089Z,8.19
2018-09-28T04:16:06.651Z,8.21
2018-09-28T04:17:06.713Z,8.18
2018-09-28T04:18:06.689Z,8.19
2018-09-28T04:19:06.684Z,8.2
2018-09-28T04:20:06.736Z,8.19
2018-09-28T04:21:06.673Z,8.19
2018-09-28T04:22:07.746Z,8.15
2018-09-28T04:23:06.569Z,8.1
2018-09-28T04:24:06.692Z,8.13
2018-09-28T04:25:06.763Z,8.13
2018-09-28T04:26:06.545Z,8.16
2018-09-28T04:27:06.526Z,8.13
2018-09-28T04:28:06.544Z,8.15
2018-09-28T04:29:06.671Z,8.13
2018-09-28T04:30:06.501Z,8.05
2018-09-28T04:31:06.665Z,8.09
2018-09-28T04:32:06.860Z,8.05
2018-09-28T04:33:06.666Z,8.08
2018-09-28T04:34:06.946Z,8.08
2018-09-28T04:35:06.524Z,8.03
2018-09-28T04:36:06.775Z,8.05
2018-09-28T04:37:06.821Z,8.05
2018-09-28T04:38:06.774Z,8.06
2018-09-28T04:39:06.809Z,8.06
2018-09-28T04:40:06.807Z,8.05
2018-09-28T04:41:08.111Z,8.01
2018-09-28T04:42:06.708Z,7.98
2018-09-28T04:43:06.880Z,8.06
2018-09-28T04:44:06.759Z,8.06
2018-09-28T04:45:06.923Z,8.04
2018-09-28T04:46:06.715Z,8.05
2018-09-28T04:47:06.817Z,8.04
2018-09-28T04:48:06.690Z,7.97
2018-09-28T04:49:09.294Z,7.99
2018-09-28T04:50:06.872Z,7.96
2018-09-28T04:51:06.675Z,8
2018-09-28T04:52:06.751Z,8.07
2018-09-28T04:53:43.723Z,8.01
2018-09-28T04:54:06.619Z,7.99
2018-09-28T04:55:07.019Z,8.06
2018-09-28T04:56:06.792Z,8.07
2018-09-28T04:57:07.365Z,8.04
2018-09-28T04:58:06.548Z,8
2018-09-28T04:59:06.627Z,8.06
2018-09-28T05:00:06.693Z,8.03
2018-09-28T05:01:06.736Z,7.97
2018-09-28T05:02:06.680Z,7.99
2018-09-28T05:03:06.568Z,7.97
2018-09-28T05:04:06.595Z,7.98
2018-09-28T05:05:06.647Z,7.97
2018-09-28T05:06:06.679Z,7.95
2018-09-28T05:07:06.794Z,7.95
2018-09-28T05:08:06.719Z,7.95
2018-09-28T05:09:07.099Z,7.98
2018-09-28T05:10:06.783Z,7.97
2018-09-28T05:11:06.773Z,7.93
2018-09-28T05:12:06.798Z,7.98
2018-09-28T05:13:07.521Z,8.03
2018-09-28T05:14:06.835Z,8
2018-09-28T05:15:06.635Z,8.07
2018-09-28T05:16:06.655Z,8.01
2018-09-28T05:17:06.724Z,8
2018-09-28T05:18:06.526Z,7.96
2018-09-28T05:19:06.645Z,8.02
2018-09-28T05:20:06.708Z,8.03
2018-09-28T05:21:06.920Z,8.02
2018-09-28T05:22:07.886Z,8.08
2018-09-28T05:23:06.665Z,8.02
2018-09-28T05:24:06.700Z,7.96
2018-09-28T05:25:06.868Z,8.01
2018-09-28T05:26:06.717Z,8.03
2018-09-28T05:27:07.164Z,8
2018-09-28T05:28:06.731Z,7.99
2018-09-28T05:29:06.817Z,8.02
2018-09-28T05:30:06.676Z,7.97
2018-09-28T05:31:07.087Z,8.08
2018-09-28T05:32:07.732Z,8.07
2018-09-28T05:33:07.680Z,8.05
2018-09-28T05:34:06.707Z,8.04
2018-09-28T05:35:06.437Z,8.05
2018-09-28T05:36:06.794Z,8.02
2018-09-28T05:37:06.733Z,7.98
2018-09-28T05:38:06.789Z,7.93
2018-09-28T05:39:06.497Z,7.97
2018-09-28T05:40:06.741Z,7.97
2018-09-28T05:41:06.680Z,7.95
2018-09-28T05:42:06.824Z,7.99
2018-09-28T05:43:06.583Z,8.02
2018-09-28T05:44:06.592Z,8
2018-09-28T05:45:06.431Z,8
2018-09-28T05:46:06.612Z,8.02
2018-09-28T05:47:06.620Z,8.01
2018-09-28T05:48:06.424Z,8.06
2018-09-28T05:49:06.774Z,8.02
2018-09-28T05:50:06.762Z,7.99
2018-09-28T05:51:06.576Z,7.97
2018-09-28T05:52:06.555Z,7.97
2018-09-28T05:53:06.588Z,8.01
2018-09-28T05:54:06.432Z,7.99
2018-09-28T05:55:06.574Z,8
2018-09-28T05:56:06.386Z,7.98
2018-09-28T05:57:06.556Z,7.96
2018-09-28T05:58:06.523Z,7.97
2018-09-28T05:59:06.531Z,7.98
2018-09-28T06:00:07.387Z,7.98
2018-09-28T06:01:06.548Z,7.96
2018-09-28T06:02:06.615Z,7.96
2018-09-28T06:03:06.388Z,7.95
2018-09-28T06:04:06.590Z,7.99
2018-09-28T06:05:06.464Z,8.02
2018-09-28T06:06:06.540Z,7.98
2018-09-28T06:07:06.633Z,8.02
2018-09-28T06:08:06.618Z,7.98
2018-09-28T06:09:06.551Z,7.96
2018-09-28T06:10:06.542Z,7.95
2018-09-28T06:11:06.455Z,7.93
2018-09-28T06:12:06.629Z,8.05
2018-09-28T06:13:06.554Z,8.06
2018-09-28T06:14:06.807Z,8.07
2018-09-28T06:15:06.461Z,8.01
2018-09-28T06:16:06.755Z,8.06
2018-09-28T06:17:06.607Z,7.99
2018-09-28T06:18:06.372Z,8.03
2018-09-28T06:19:06.502Z,8.05
2018-09-28T06:20:06.613Z,8.05
2018-09-28T06:21:06.519Z,8.07
2018-09-28T06:22:06.663Z,8.01
2018-09-28T06:23:06.427Z,8.03
2018-09-28T06:24:06.860Z,8.03
2018-09-28T06:25:06.359Z,8.12
2018-09-28T06:26:06.369Z,8.1
2018-09-28T06:27:06.344Z,8.08
2018-09-28T06:28:06.489Z,8.17
2018-09-28T06:29:06.470Z,8.12
2018-09-28T06:30:06.973Z,8.19
2018-09-28T06:31:06.374Z,8.14
2018-09-28T06:32:06.694Z,8.2
2018-09-28T06:33:06.603Z,8.16
2018-09-28T06:34:06.444Z,8.1
2018-09-28T06:35:06.601Z,8.08
2018-09-28T06:36:06.923Z,8.11
2018-09-28T06:37:06.554Z,8.08
2018-09-28T06:38:06.712Z,8.16
2018-09-28T06:39:06.431Z,8.09
2018-09-28T06:40:06.771Z,8.22
2018-09-28T06:41:06.511Z,8.19
2018-09-28T06:42:07.479Z,8.26
2018-09-28T06:43:06.713Z,8.25
2018-09-28T06:44:06.823Z,8.23
2018-09-28T06:45:06.611Z,8.21
2018-09-28T06:46:06.548Z,8.25
2018-09-28T06:47:06.626Z,8.3
2018-09-28T06:48:06.752Z,8.28
2018-09-28T06:49:06.467Z,8.31
2018-09-28T06:50:06.516Z,8.32
2018-09-28T06:51:06.857Z,8.34
2018-09-28T06:52:06.621Z,8.3
2018-09-28T06:53:06.327Z,8.31
2018-09-28T06:54:06.593Z,8.34
2018-09-28T06:55:06.356Z,8.4
2018-09-28T06:56:06.675Z,8.39
2018-09-28T06:57:06.872Z,8.39
2018-09-28T06:58:07.084Z,8.39
2018-09-28T06:59:06.441Z,8.36
2018-09-28T07:00:06.976Z,8.42
2018-09-28T07:01:06.619Z,8.44
2018-09-28T07:02:06.517Z,8.47
2018-09-28T07:03:06.505Z,8.49
2018-09-28T07:04:06.889Z,8.51
2018-09-28T07:05:06.545Z,8.52
2018-09-28T07:06:06.723Z,8.56
2018-09-28T07:07:06.416Z,8.53
2018-09-28T07:08:06.462Z,8.46
2018-09-28T07:09:06.474Z,8.43
2018-09-28T07:10:06.520Z,8.43
2018-09-28T07:11:06.682Z,8.56
2018-09-28T07:12:06.560Z,8.59
2018-09-28T07:13:06.462Z,8.61
2018-09-28T07:14:06.322Z,8.64
2018-09-28T07:15:06.334Z,8.63
2018-09-28T07:16:06.672Z,8.65
2018-09-28T07:17:06.516Z,8.64
2018-09-28T07:18:06.750Z,8.66
2018-09-28T07:19:06.277Z,8.67
2018-09-28T07:20:06.793Z,8.7
2018-09-28T07:21:06.570Z,8.72
2018-09-28T07:22:06.269Z,8.72
2018-09-28T07:23:06.320Z,8.77
2018-09-28T07:24:06.846Z,8.76
2018-09-28T07:25:06.920Z,8.73
2018-09-28T07:26:06.544Z,8.74
2018-09-28T07:27:06.489Z,8.81
2018-09-28T07:28:06.429Z,8.82
2018-09-28T07:29:06.471Z,8.82
2018-09-28T07:30:06.978Z,8.85
2018-09-28T07:31:06.556Z,8.91
2018-09-28T07:32:07.281Z,8.86
2018-09-28T07:33:06.317Z,8.84
2018-09-28T07:34:06.886Z,8.8
2018-09-28T07:35:06.498Z,8.91
2018-09-28T07:36:08.385Z,8.93
2018-09-28T07:37:08.470Z,8.94
2018-09-28T07:38:06.591Z,8.94
2018-09-28T07:39:06.328Z,8.88
2018-09-28T07:40:06.272Z,8.95
2018-09-28T07:41:06.302Z,8.97
2018-09-28T07:42:06.949Z,8.96
2018-09-28T07:43:06.420Z,8.96
2018-09-28T07:44:06.276Z,8.93
2018-09-28T07:45:06.545Z,8.91
2018-09-28T07:46:06.312Z,8.97
2018-09-28T07:47:06.805Z,8.99
2018-09-28T07:48:07.010Z,9.01
2018-09-28T07:49:06.789Z,9.02
2018-09-28T07:50:06.516Z,9.04
2018-09-28T07:51:06.780Z,8.99
2018-09-28T07:52:06.282Z,9.02
2018-09-28T07:53:06.483Z,9.01
2018-09-28T07:54:06.595Z,8.99
2018-09-28T07:55:06.478Z,9.07
2018-09-28T07:56:06.443Z,9.06
2018-09-28T07:57:06.493Z,9.05
2018-09-28T07:58:06.694Z,9.06
2018-09-28T07:59:06.405Z,9.06
2018-09-28T08:00:06.507Z,9.06
2018-09-28T08:01:06.374Z,9.08
2018-09-28T08:02:06.308Z,9.07
2018-09-28T08:03:06.240Z,9.07
2018-09-28T08:04:06.364Z,9.12
2018-09-28T08:05:06.442Z,9.13
2018-09-28T08:06:06.369Z,9.13
2018-09-28T08:07:06.380Z,9.15
2018-09-28T08:08:06.635Z,9.18
2018-09-28T08:09:06.442Z,9.14
2018-09-28T08:10:06.462Z,9.19
2018-09-28T08:11:06.238Z,9.2
2018-09-28T08:12:06.437Z,9.16
2018-09-28T08:13:06.204Z,9.21
2018-09-28T08:14:06.426Z,9.21
2018-09-28T08:15:06.459Z,9.16
2018-09-28T08:16:06.245Z,9.19
2018-09-28T08:17:06.485Z,9.27
2018-09-28T08:18:06.432Z,9.27
2018-09-28T08:19:06.471Z,9.29
2018-09-28T08:20:06.516Z,9.3
2018-09-28T08:31:24.306Z,9.15
2018-09-28T08:32:24.422Z,9.18
2018-09-28T08:33:24.225Z,9.17
2018-09-28T08:34:24.231Z,9.15
2018-09-28T08:35:24.360Z,9.15
2018-09-28T08:36:24.786Z,9.11
2018-09-28T08:37:24.209Z,9.17
2018-09-28T08:38:24.150Z,9.13
2018-09-28T08:39:24.232Z,9.16
2018-09-28T08:40:24.199Z,9.09
2018-09-28T08:41:24.175Z,9.16
2018-09-28T08:42:24.175Z,9.2
2018-09-28T08:43:24.286Z,9.11
2018-09-28T08:44:24.162Z,9.11
2018-09-28T08:45:24.172Z,9.16
2018-09-28T08:46:24.245Z,9.2
2018-09-28T08:47:24.142Z,9.23
2018-09-28T08:48:24.220Z,9.28
2018-09-28T08:49:24.166Z,9.26
2018-09-28T08:50:24.140Z,9.29
2018-09-28T08:51:24.140Z,9.27
2018-09-28T08:52:25.348Z,9.27
2018-09-28T08:53:24.269Z,9.26
2018-09-28T08:54:24.301Z,9.28
2018-09-28T08:55:24.553Z,9.26
2018-09-28T08:56:24.175Z,9.36
2018-09-28T08:58:25.115Z,9.37
2018-09-28T08:59:24.227Z,9.38
2018-09-28T09:00:24.414Z,9.31
2018-09-28T09:01:24.184Z,9.3
2018-09-28T09:02:24.218Z,9.24
2018-09-28T09:03:24.372Z,9.25
2018-09-28T09:04:24.365Z,9.27
2018-09-28T09:05:24.303Z,9.23
2018-09-28T09:06:24.239Z,9.27
2018-09-28T09:07:24.424Z,9.26
2018-09-28T09:08:24.300Z,9.24
2018-09-28T09:09:24.272Z,9.29
2018-09-28T09:10:24.087Z,9.27
2018-09-28T09:11:24.155Z,9.27
2018-09-28T09:12:24.154Z,9.36
2018-09-28T09:13:24.424Z,9.39
2018-09-28T09:14:24.205Z,9.22
2018-09-28T09:15:24.524Z,9.26
2018-09-28T09:16:24.315Z,9.3
2018-09-28T09:17:24.196Z,9.32
2018-09-28T09:18:24.777Z,9.27
2018-09-28T09:19:24.050Z,9.32
2018-09-28T09:20:24.208Z,9.44
2018-09-28T09:21:24.169Z,9.36
2018-09-28T09:22:24.202Z,9.39
2018-09-28T09:23:24.256Z,9.34
2018-09-28T09:24:24.347Z,9.35
2018-09-28T09:25:24.130Z,9.32
2018-09-28T09:26:24.251Z,9.37
2018-09-28T09:27:24.414Z,9.39
2018-09-28T09:28:24.169Z,9.4
2018-09-28T09:29:24.370Z,9.35
2018-09-28T09:30:24.197Z,9.26
2018-09-28T09:31:24.041Z,9.33
2018-09-28T09:32:24.178Z,9.2
2018-09-28T09:33:24.324Z,9.17
2018-09-28T09:34:24.191Z,9.19
2018-09-28T09:35:24.361Z,9.23
2018-09-28T09:36:24.429Z,9.26
2018-09-28T09:37:24.099Z,9.22
2018-09-28T09:38:24.136Z,9.2
2018-09-28T09:39:24.104Z,9.22
2018-09-28T09:40:24.141Z,9.25
2018-09-28T09:41:24.039Z,9.31
2018-09-28T09:42:25.173Z,9.34
2018-09-28T09:43:24.401Z,9.46
2018-09-28T09:44:24.221Z,9.54
2018-09-28T09:45:24.082Z,9.54
2018-09-28T09:46:24.210Z,9.34
2018-09-28T09:47:24.097Z,9.27
2018-09-28T09:48:24.340Z,9.34
2018-09-28T09:49:24.172Z,9.26
2018-09-28T09:50:24.157Z,9.3
2018-09-28T09:51:24.134Z,9.26
2018-09-28T09:52:24.041Z,9.28
2018-09-28T09:53:24.127Z,9.29
2018-09-28T09:54:24.198Z,9.3
2018-09-28T09:55:24.058Z,9.38
2018-09-28T09:56:24.024Z,9.3
2018-09-28T09:57:24.139Z,9.25
2018-09-28T09:58:24.081Z,9.37
2018-09-28T09:59:24.133Z,9.25
2018-09-28T10:00:24.290Z,9.41
2018-09-28T10:01:24.077Z,9.4
2018-09-28T10:02:24.090Z,9.43
2018-09-28T10:03:24.336Z,9.4
2018-09-28T10:04:24.083Z,9.36
2018-09-28T10:05:24.061Z,9.31
2018-09-28T10:06:24.233Z,9.26
2018-09-28T10:07:24.106Z,9.26
2018-09-28T10:08:24.017Z,9.25
2018-09-28T10:09:25.487Z,9.24
2018-09-28T10:10:24.049Z,9.29
2018-09-28T10:11:23.975Z,9.29
2018-09-28T10:12:26.092Z,9.2
2018-09-28T10:13:23.988Z,9.24
2018-09-28T10:14:24.333Z,9.18
2018-09-28T10:15:23.983Z,9.26
2018-09-28T10:16:24.092Z,9.17
2018-09-28T10:17:24.091Z,9.24
2018-09-28T10:18:23.958Z,9.22
2018-09-28T10:19:24.990Z,9.22
2018-09-28T10:20:24.047Z,9.23
2018-09-28T10:21:24.099Z,9.2
2018-09-28T10:22:23.972Z,9.21
2018-09-28T10:23:23.979Z,9.16
2018-09-28T10:24:24.464Z,9.29
2018-09-28T10:25:24.070Z,9.27
2018-09-28T10:26:24.127Z,9.15
2018-09-28T10:27:25.043Z,9.24
2018-09-28T10:28:24.608Z,9.17
2018-09-28T10:29:24.182Z,9.19
2018-09-28T10:30:24.188Z,9.15
2018-09-28T10:31:24.029Z,9.1
2018-09-28T10:32:24.051Z,9.15
2018-09-28T10:33:24.123Z,9.16
2018-09-28T10:34:24.860Z,9.21
2018-09-28T10:35:24.137Z,9.2
2018-09-28T10:36:24.265Z,9.14
2018-09-28T10:37:24.138Z,9.17
2018-09-28T10:38:24.056Z,9.2
2018-09-28T10:39:24.867Z,9.14
2018-09-28T10:40:25.249Z,9.03
2018-09-28T10:41:23.957Z,9.11
2018-09-28T10:42:24.178Z,9.13
2018-09-28T10:43:24.105Z,9.11
2018-09-28T10:44:23.987Z,9.19
2018-09-28T10:45:24.978Z,9.15
2018-09-28T10:46:24.432Z,9.16
2018-09-28T10:47:24.113Z,9.13
2018-09-28T10:48:24.057Z,9.19
2018-09-28T10:49:24.463Z,9.16
2018-09-28T10:50:24.229Z,9.15
2018-09-28T10:51:24.676Z,9.14
2018-09-28T10:52:26.772Z,9.14
2018-09-28T10:53:24.050Z,9.21
2018-09-28T10:55:03.780Z,9.22
2018-09-28T10:56:03.659Z,9.23
2018-09-28T10:57:48.590Z,9.14
2018-09-28T10:58:49.477Z,9.06
2018-09-28T10:59:48.662Z,9.03
2018-09-28T11:00:48.470Z,9.01
2018-09-28T11:01:49.034Z,9.05
2018-09-28T11:02:48.570Z,9.03
2018-09-28T11:03:50.860Z,9.02
2018-09-28T11:05:48.559Z,9.08
2018-09-28T11:06:49.779Z,9.12
2018-09-28T11:07:48.503Z,9.07
2018-09-28T11:08:48.774Z,9.05
2018-09-28T11:09:51.849Z,8.99
2018-09-28T11:10:49.044Z,8.93
2018-09-28T11:11:48.426Z,8.99
2018-09-28T11:12:48.431Z,8.97
2018-09-28T11:13:48.458Z,9.05
2018-09-28T11:14:48.462Z,8.94
2018-09-28T11:15:50.277Z,9.04
2018-09-28T11:16:48.293Z,9
2018-09-28T11:17:48.499Z,8.93
2018-09-28T11:18:49.009Z,9.01
2018-09-28T11:19:48.392Z,8.97
2018-09-28T11:20:48.558Z,8.8
2018-09-28T11:21:49.568Z,8.81
2018-09-28T11:22:48.566Z,8.73
2018-09-28T11:23:48.732Z,8.91
2018-09-28T11:24:48.671Z,8.88
2018-09-28T11:25:48.785Z,8.78
2018-09-28T11:26:48.537Z,8.81
2018-09-28T11:27:49.108Z,8.85
2018-09-28T11:28:48.569Z,8.9
2018-09-28T11:29:48.569Z,8.82
2018-09-28T11:30:48.495Z,8.84
2018-09-28T11:31:48.499Z,8.7
2018-09-28T11:32:48.613Z,8.7
2018-09-28T11:33:49.393Z,8.8
2018-09-28T11:34:48.524Z,8.79
2018-09-28T11:35:48.610Z,8.73
2018-09-28T11:36:48.534Z,8.75
2018-09-28T11:37:48.810Z,8.67
2018-09-28T11:38:48.386Z,8.59
2018-09-28T11:39:49.240Z,8.63
2018-09-28T11:40:48.469Z,8.61
2018-09-28T11:41:48.606Z,8.57
2018-09-28T11:42:48.785Z,8.58
2018-09-28T11:43:48.687Z,8.56
2018-09-28T11:44:48.582Z,8.49
2018-09-28T11:45:49.485Z,8.48
2018-09-28T11:46:48.484Z,8.48
2018-09-28T11:47:48.388Z,8.44
2018-09-28T11:48:48.555Z,8.51
2018-09-28T11:49:48.446Z,8.33
2018-09-28T11:50:48.437Z,8.38
2018-09-28T11:51:49.253Z,8.36
2018-09-28T11:52:48.515Z,8.33
2018-09-28T11:53:48.557Z,8.14
2018-09-28T11:54:48.336Z,8.2
2018-09-28T11:55:48.747Z,7.93
2018-09-28T11:56:48.426Z,7.89
2018-09-28T11:57:48.602Z,7.82
2018-09-28T11:58:48.589Z,7.94
2018-09-28T11:59:48.363Z,7.79
2018-09-28T12:00:48.685Z,7.86
2018-09-28T12:01:48.362Z,7.89
2018-09-28T12:02:48.335Z,7.97
2018-09-28T12:03:49.228Z,8.05
2018-09-28T12:04:48.324Z,8.14
2018-09-28T12:05:48.315Z,8.13
2018-09-28T12:06:49.621Z,7.98
2018-09-28T12:07:48.460Z,8
2018-09-28T12:08:48.265Z,7.82
2018-09-28T12:09:49.202Z,7.8
2018-09-28T12:10:48.641Z,7.72
2018-09-28T12:11:48.275Z,7.71
2018-09-28T12:12:49.728Z,7.76
2018-09-28T12:13:48.775Z,7.79
2018-09-28T12:14:48.646Z,7.85
2018-09-28T12:15:49.115Z,7.79
2018-09-28T12:16:48.382Z,7.74
2018-09-28T12:17:48.302Z,7.7
2018-09-28T12:18:49.127Z,7.6
2018-09-28T12:19:48.441Z,7.54
2018-09-28T12:20:48.334Z,7.56
2018-09-28T12:21:48.965Z,7.58
2018-09-28T12:22:48.439Z,7.52
2018-09-28T12:23:48.360Z,7.6
2018-09-28T12:24:49.147Z,7.72
2018-09-28T12:25:48.384Z,7.79
2018-09-28T12:26:48.328Z,7.59
2018-09-28T12:27:49.193Z,7.54
2018-09-28T12:28:48.338Z,7.64
2018-09-28T12:29:48.295Z,7.48
2018-09-28T12:30:49.025Z,7.5
2018-09-28T12:31:48.380Z,7.26
2018-09-28T12:32:48.336Z,7.21
2018-09-28T12:33:49.547Z,7.32
2018-09-28T12:34:48.298Z,7.45
2018-09-28T12:35:48.242Z,7.37
2018-09-28T12:36:48.900Z,7.46
2018-09-28T12:37:48.584Z,7.45
2018-09-28T12:38:48.242Z,7.13
2018-09-28T12:39:49.863Z,7.1
2018-09-28T12:40:48.257Z,7.05
2018-09-28T12:41:48.306Z,6.92
2018-09-28T12:42:49.023Z,6.84
2018-09-28T12:43:48.468Z,6.99
2018-09-28T12:44:48.929Z,7.1
2018-09-28T12:45:48.398Z,7.26
2018-09-28T12:46:48.262Z,7.27
2018-09-28T12:47:48.300Z,7.37
2018-09-28T12:48:49.105Z,7.3
2018-09-28T12:49:48.412Z,7.22
2018-09-28T12:50:49.102Z,7.47
2018-09-28T12:51:48.487Z,7.4
2018-09-28T12:52:48.285Z,7.31
2018-09-28T12:53:49.249Z,7.37
2018-09-28T12:54:48.830Z,7.38
2018-09-28T12:55:48.356Z,7.31
2018-09-28T12:56:48.686Z,7.29
2018-09-28T12:57:48.370Z,7.27
2018-09-28T12:58:48.276Z,7.3
2018-09-28T12:59:48.256Z,7.24
2018-09-28T13:00:49.771Z,7.38
2018-09-28T13:01:48.398Z,7.45
2018-09-28T13:02:49.233Z,7.33
2018-09-28T13:03:48.682Z,7.41
2018-09-28T13:04:48.370Z,7.4
2018-09-28T13:05:48.209Z,7.44
2018-09-28T13:06:49.465Z,7.41
2018-09-28T13:07:48.249Z,7.45
2018-09-28T13:08:49.097Z,7.57
2018-09-28T13:09:48.561Z,7.48
2018-09-28T13:10:48.541Z,7.53
2018-09-28T13:11:48.189Z,7.49
2018-09-28T13:12:49.120Z,7.6
2018-09-28T13:13:48.419Z,7.62
2018-09-28T13:14:49.170Z,7.63
2018-09-28T13:15:48.369Z,7.64
2018-09-28T13:16:48.400Z,7.71
2018-09-28T13:17:48.399Z,7.7
2018-09-28T13:18:49.218Z,7.7
2018-09-28T13:19:48.218Z,7.61
2018-09-28T13:20:49.135Z,7.81
2018-09-28T13:21:49.023Z,7.82
2018-09-28T13:22:48.717Z,7.74
2018-09-28T13:23:48.217Z,7.78
2018-09-28T13:24:48.967Z,7.81
2018-09-28T13:25:48.192Z,7.79
2018-09-28T13:26:49.111Z,7.73
2018-09-28T13:27:48.480Z,7.69
2018-09-28T13:28:48.474Z,7.57
2018-09-28T13:29:48.200Z,7.63
2018-09-28T13:30:49.049Z,7.6
2018-09-28T13:31:48.190Z,7.54
2018-09-28T13:32:49.084Z,7.59
2018-09-28T13:33:48.424Z,7.6
2018-09-28T13:34:48.358Z,7.65
2018-09-28T13:35:48.213Z,7.54